createdAt,value
2022-12-12T00:00:53.084Z,96912.53
2022-12-12T00:03:20.080Z,96891.41
2022-12-12T00:05:46.990Z,96910.44
2022-12-12T00:08:13.858Z,96910.63
2022-12-12T00:10:40.505Z,96932.13
2022-12-12T00:13:07.159Z,96931.88
2022-12-12T00:15:33.811Z,96935.16
2022-12-12T00:18:00.439Z,96962.03
2022-12-12T00:20:27.259Z,96976.34
2022-12-12T00:22:53.922Z,96955.00
2022-12-12T00:25:20.557Z,96944.84
2022-12-12T00:27:47.322Z,96983.34
2022-12-12T00:30:14.065Z,96956.59
2022-12-12T00:32:40.684Z,96962.56
2022-12-12T00:35:07.687Z,96961.59
2022-12-12T00:37:34.339Z,96933.44
2022-12-12T00:40:02.198Z,96982.28
2022-12-12T00:42:28.905Z,96986.03
2022-12-12T00:44:55.588Z,96974.88
2022-12-12T00:47:24.840Z,96946.28
2022-12-12T00:49:51.474Z,96954.16
2022-12-12T00:52:18.089Z,96979.47
2022-12-12T00:54:44.846Z,96971.59
2022-12-12T00:57:11.548Z,96962.25
2022-12-12T00:59:38.430Z,96962.69
2022-12-12T01:02:05.327Z,96969.13
2022-12-12T01:04:32.069Z,96992.13
2022-12-12T01:06:58.759Z,96979.66
2022-12-12T01:09:25.624Z,96988.16
2022-12-12T01:11:52.211Z,96975.53
2022-12-12T01:14:18.847Z,96993.97
2022-12-12T01:16:45.506Z,96961.84
2022-12-12T01:19:12.868Z,96947.59
2022-12-12T01:21:39.517Z,96983.81
2022-12-12T01:24:06.449Z,96994.34
2022-12-12T01:26:33.292Z,97009.66
2022-12-12T01:28:59.930Z,96998.88
2022-12-12T01:31:26.625Z,96994.66
2022-12-12T01:33:53.325Z,97010.44
2022-12-12T01:36:23.264Z,97035.28
2022-12-12T01:38:52.405Z,97039.41
2022-12-12T01:41:20.968Z,97053.69
2022-12-12T01:43:48.123Z,97019.13
2022-12-12T01:46:40.823Z,97044.41
2022-12-12T01:49:26.340Z,97061.81
2022-12-12T01:51:58.386Z,97040.91
2022-12-12T01:54:33.222Z,97048.53
2022-12-12T01:57:05.364Z,97031.88
2022-12-12T01:59:34.349Z,97058.03
2022-12-12T02:02:01.178Z,97029.19
2022-12-12T02:04:28.781Z,97040.94
2022-12-12T02:06:56.284Z,97067.63
2022-12-12T02:09:25.733Z,97027.63
2022-12-12T02:11:55.772Z,97056.47
2022-12-12T02:14:43.353Z,97049.91
2022-12-12T02:17:09.938Z,97075.59
2022-12-12T02:19:39.532Z,97070.47
2022-12-12T02:22:13.926Z,97077.47
2022-12-12T02:24:42.845Z,97087.41
2022-12-12T02:27:31.641Z,97083.66
2022-12-12T02:30:18.308Z,97080.81
2022-12-12T02:32:53.938Z,97081.81
2022-12-12T02:35:43.308Z,97080.38
2022-12-12T02:38:22.027Z,97087.38
2022-12-12T02:41:14.162Z,97094.81
2022-12-12T02:44:06.267Z,97095.00
2022-12-12T02:47:12.590Z,97108.63
2022-12-12T02:49:53.490Z,97092.06
2022-12-12T02:52:21.383Z,97074.00
2022-12-12T02:54:51.351Z,97098.03
2022-12-12T02:57:24.067Z,97083.34
2022-12-12T03:00:05.729Z,97113.84
2022-12-12T03:03:14.204Z,97123.63
2022-12-12T03:06:21.296Z,97129.41
2022-12-12T03:09:26.739Z,97124.47
2022-12-12T03:11:56.276Z,97121.38
2022-12-12T03:14:32.024Z,97116.00
2022-12-12T03:17:09.356Z,97097.75
2022-12-12T03:20:05.004Z,97113.88
2022-12-12T03:22:40.775Z,97141.88
2022-12-12T03:25:18.868Z,97127.19
2022-12-12T03:27:56.151Z,97136.56
2022-12-12T03:30:22.934Z,97144.84
2022-12-12T03:33:20.759Z,97145.03
2022-12-12T03:36:23.855Z,97152.09
2022-12-12T03:39:00.572Z,97156.81
2022-12-12T03:41:48.636Z,97127.59
2022-12-12T03:44:22.546Z,97149.59
2022-12-12T03:46:54.954Z,97151.69
2022-12-12T03:49:40.581Z,97127.66
2022-12-12T03:52:13.409Z,97129.53
2022-12-12T03:54:52.280Z,97103.81
2022-12-12T03:57:20.896Z,97153.78
2022-12-12T04:00:06.529Z,97166.41
2022-12-12T04:02:40.773Z,97153.72
2022-12-12T04:05:25.980Z,97177.38
2022-12-12T04:07:55.316Z,97179.25
2022-12-12T04:10:46.367Z,97173.63
2022-12-12T04:13:17.037Z,97184.13
2022-12-12T04:16:05.544Z,97128.81
2022-12-12T04:18:50.720Z,97173.19
2022-12-12T04:22:04.354Z,97180.59
2022-12-12T04:25:09.771Z,97178.66
2022-12-12T04:27:44.496Z,97132.34
2022-12-12T04:30:13.440Z,97183.34
2022-12-12T04:32:45.841Z,97139.16
2022-12-12T04:35:37.172Z,97183.34
2022-12-12T04:38:08.476Z,97186.41
2022-12-12T04:40:39.756Z,97180.81
2022-12-12T04:43:11.758Z,97134.72
2022-12-12T04:45:42.505Z,97152.09
2022-12-12T04:48:16.208Z,97132.00
2022-12-12T04:50:45.710Z,97163.91
2022-12-12T04:53:18.772Z,97183.22
2022-12-12T04:55:55.755Z,97153.66
2022-12-12T04:58:22.974Z,97168.75
2022-12-12T05:01:03.931Z,97195.59
2022-12-12T05:03:47.141Z,97179.13
2022-12-12T05:06:18.330Z,97203.75
2022-12-12T05:08:48.974Z,97220.31
2022-12-12T05:11:18.521Z,97209.06
2022-12-12T05:13:45.600Z,97184.78
2022-12-12T05:16:27.639Z,97212.94
2022-12-12T05:18:54.332Z,97203.69
2022-12-12T05:21:20.989Z,97181.94
2022-12-12T05:23:47.740Z,97194.41
2022-12-12T05:26:32.711Z,97215.50
2022-12-12T05:29:05.248Z,97239.59
2022-12-12T05:31:33.535Z,97227.88
2022-12-12T05:34:00.178Z,97216.19
2022-12-12T05:36:27.156Z,97243.53
2022-12-12T05:38:53.808Z,97215.66
2022-12-12T05:41:20.625Z,97235.47
2022-12-12T05:43:47.369Z,97260.00
2022-12-12T05:46:14.308Z,97253.94
2022-12-12T05:48:41.108Z,97251.91
2022-12-12T05:51:07.878Z,97251.34
2022-12-12T05:53:42.502Z,97266.72
2022-12-12T05:56:11.667Z,97259.34
2022-12-12T05:58:39.546Z,97276.88
2022-12-12T06:01:07.016Z,97265.97
2022-12-12T06:03:33.937Z,97266.97
2022-12-12T06:06:00.744Z,97247.59
2022-12-12T06:08:27.723Z,97275.09
2022-12-12T06:10:54.499Z,97279.63
2022-12-12T06:13:21.163Z,97264.09
2022-12-12T06:15:47.966Z,97246.72
2022-12-12T06:18:14.622Z,97265.00
2022-12-12T06:20:41.578Z,97256.50
2022-12-12T06:23:08.218Z,97267.56
2022-12-12T06:25:34.930Z,97252.50
2022-12-12T06:28:01.595Z,97276.28
2022-12-12T06:30:28.289Z,97266.19
2022-12-12T06:32:54.970Z,97252.31
2022-12-12T06:35:21.613Z,97269.41
2022-12-12T06:37:48.760Z,97286.69
2022-12-12T06:40:16.448Z,97283.59
2022-12-12T06:42:48.524Z,97277.19
2022-12-12T06:45:16.665Z,97319.19
2022-12-12T06:47:43.639Z,97297.59
2022-12-12T06:50:10.353Z,97337.50
2022-12-12T06:52:37.630Z,97334.81
2022-12-12T06:55:04.783Z,97351.59
2022-12-12T06:57:31.409Z,97316.72
2022-12-12T06:59:58.110Z,97364.91
2022-12-12T07:02:29.482Z,97359.81
2022-12-12T07:04:57.092Z,97361.25
2022-12-12T07:07:23.754Z,97332.44
2022-12-12T07:09:50.620Z,97364.88
2022-12-12T07:12:17.261Z,97345.19
2022-12-12T07:14:44.011Z,97356.56
2022-12-12T07:17:10.681Z,97348.84
2022-12-12T07:19:37.525Z,97336.19
2022-12-12T07:22:09.323Z,97388.16
2022-12-12T07:24:36.763Z,97394.06
2022-12-12T07:27:03.684Z,97372.50
2022-12-12T07:29:30.474Z,97404.94
2022-12-12T07:31:57.081Z,97353.56
2022-12-12T07:34:23.777Z,97388.53
2022-12-12T07:36:50.459Z,97381.69
2022-12-12T07:39:20.754Z,97393.47
2022-12-12T07:41:48.289Z,97390.16
2022-12-12T07:44:16.597Z,97407.63
2022-12-12T07:46:43.289Z,97398.78
2022-12-12T07:49:10.192Z,97416.25
2022-12-12T07:51:44.156Z,97380.81
2022-12-12T07:54:13.884Z,97374.41
2022-12-12T07:56:41.036Z,97420.75
2022-12-12T07:59:07.917Z,97392.69
2022-12-12T08:01:34.734Z,97387.53
2022-12-12T08:04:01.939Z,97435.97
2022-12-12T08:06:29.026Z,97429.34
2022-12-12T08:08:56.203Z,97422.91
2022-12-12T08:11:25.582Z,97450.53
2022-12-12T08:13:53.321Z,97446.50
2022-12-12T08:16:30.013Z,97456.53
2022-12-12T08:18:58.044Z,97447.41
2022-12-12T08:21:26.709Z,97459.69
2022-12-12T08:24:02.360Z,97427.91
2022-12-12T08:26:30.748Z,97453.22
2022-12-12T08:28:58.543Z,97460.91
2022-12-12T08:31:26.734Z,97458.50
2022-12-12T08:33:53.687Z,97440.47
2022-12-12T08:36:23.290Z,97465.38
2022-12-12T08:38:50.637Z,97469.22
2022-12-12T08:41:18.214Z,97437.59
2022-12-12T08:43:45.375Z,97457.81
2022-12-12T08:46:17.366Z,97461.97
2022-12-12T08:48:46.115Z,97421.28
2022-12-12T08:51:13.892Z,97466.50
2022-12-12T08:53:43.277Z,97469.44
2022-12-12T08:56:10.013Z,97450.94
2022-12-12T08:58:39.965Z,97461.94
2022-12-12T09:01:22.027Z,97449.69
2022-12-12T09:03:50.700Z,97463.63
2022-12-12T09:06:18.253Z,97460.28
2022-12-12T09:08:45.778Z,97473.09
2022-12-12T09:11:13.472Z,97441.63
2022-12-12T09:13:40.360Z,97456.69
2022-12-12T09:16:08.744Z,97493.47
2022-12-12T09:18:36.617Z,97494.06
2022-12-12T09:21:03.794Z,97452.72
2022-12-12T09:23:30.590Z,97462.88
2022-12-12T09:25:57.802Z,97453.09
2022-12-12T09:28:26.194Z,97495.69
2022-12-12T09:30:52.922Z,97470.09
2022-12-12T09:33:20.414Z,97444.38
2022-12-12T09:35:47.162Z,97477.28
2022-12-12T09:38:14.866Z,97448.41
2022-12-12T09:40:50.931Z,97476.88
2022-12-12T09:43:24.721Z,97478.56
2022-12-12T09:45:55.007Z,97471.22
2022-12-12T09:48:38.514Z,97463.00
2022-12-12T09:51:09.773Z,97443.94
2022-12-12T09:53:37.553Z,97432.72
2022-12-12T09:56:15.330Z,97472.25
2022-12-12T09:59:00.295Z,97469.34
2022-12-12T10:01:55.226Z,97468.78
2022-12-12T10:04:34.099Z,97460.88
2022-12-12T10:07:13.124Z,97469.19
2022-12-12T10:09:58.062Z,97462.53
2022-12-12T10:12:25.313Z,97458.78
2022-12-12T10:14:57.414Z,97455.44
2022-12-12T10:17:29.607Z,97396.63
2022-12-12T10:20:00.989Z,97427.22
2022-12-12T10:22:43.149Z,97438.81
2022-12-12T10:25:36.202Z,97457.28
2022-12-12T10:28:33.147Z,97458.00
2022-12-12T10:31:11.699Z,97452.56
2022-12-12T10:33:56.761Z,97449.34
2022-12-12T10:36:38.581Z,97454.53
2022-12-12T10:39:34.185Z,97456.03
2022-12-12T10:42:10.610Z,97440.06
2022-12-12T10:44:45.556Z,97452.84
2022-12-12T10:47:14.543Z,97432.53
2022-12-12T10:49:42.244Z,97421.00
2022-12-12T10:52:22.551Z,97449.84
2022-12-12T10:54:58.236Z,97446.44
2022-12-12T10:57:27.351Z,97452.47
2022-12-12T10:59:57.461Z,97439.53
2022-12-12T11:02:37.014Z,97452.13
2022-12-12T11:05:26.955Z,97436.13
2022-12-12T11:08:03.768Z,97436.22
2022-12-12T11:10:36.424Z,97439.00
2022-12-12T11:13:15.544Z,97410.50
2022-12-12T11:15:50.992Z,97420.91
2022-12-12T11:18:20.739Z,97421.56
2022-12-12T11:21:13.881Z,97419.44
2022-12-12T11:23:47.791Z,97410.59
2022-12-12T11:26:18.339Z,97384.34
2022-12-12T11:28:53.155Z,97380.28
2022-12-12T11:31:23.426Z,97385.22
2022-12-12T11:33:57.308Z,97396.44
2022-12-12T11:36:37.480Z,97423.56
2022-12-12T11:39:16.931Z,97419.16
2022-12-12T11:42:03.779Z,97435.03
2022-12-12T11:44:36.418Z,97420.19
2022-12-12T11:47:24.342Z,97394.75
2022-12-12T11:49:57.546Z,97387.69
2022-12-12T11:52:29.071Z,97408.56
2022-12-12T11:54:56.257Z,97383.00
2022-12-12T11:57:38.028Z,97403.97
2022-12-12T12:00:19.045Z,97399.72
2022-12-12T12:03:21.366Z,97372.13
2022-12-12T12:06:07.137Z,97393.25
2022-12-12T12:08:59.536Z,97390.41
2022-12-12T12:11:46.369Z,97371.00
2022-12-12T12:14:36.858Z,97387.25
2022-12-12T12:17:32.992Z,97383.75
2022-12-12T12:20:32.815Z,97388.63
2022-12-12T12:23:24.613Z,97345.28
2022-12-12T12:26:10.912Z,97374.09
2022-12-12T12:28:49.940Z,97382.81
2022-12-12T12:31:42.853Z,97374.59
2022-12-12T12:34:17.441Z,97380.97
2022-12-12T12:36:47.123Z,97389.34
2022-12-12T12:39:53.605Z,97381.75
2022-12-12T12:42:35.317Z,97388.09
2022-12-12T12:45:24.380Z,97372.66
2022-12-12T12:48:10.869Z,97387.38
2022-12-12T12:50:40.027Z,97369.88
2022-12-12T12:53:15.622Z,97385.94
2022-12-12T12:55:50.700Z,97361.41
2022-12-12T12:58:25.821Z,97360.47
2022-12-12T13:01:25.123Z,97386.63
2022-12-12T13:04:01.952Z,97391.03
2022-12-12T13:06:54.890Z,97392.31
2022-12-12T13:09:32.628Z,97371.28
2022-12-12T13:12:05.792Z,97379.13
2022-12-12T13:15:21.031Z,97379.78
2022-12-12T13:17:47.818Z,97379.94
2022-12-12T13:20:19.082Z,97361.97
2022-12-12T13:22:58.122Z,97369.09
2022-12-12T13:25:37.900Z,97353.34
2022-12-12T13:28:14.274Z,97377.81
2022-12-12T13:31:18.094Z,97382.44
2022-12-12T13:33:47.320Z,97389.94
2022-12-12T13:36:26.023Z,97357.69
2022-12-12T13:38:59.053Z,97366.19
2022-12-12T13:41:28.846Z,97384.88
2022-12-12T13:43:59.923Z,97391.06
2022-12-12T13:46:27.373Z,97382.75
2022-12-12T13:48:53.962Z,97394.84
2022-12-12T13:51:31.049Z,97394.25
2022-12-12T13:54:12.056Z,97392.22
2022-12-12T13:56:47.557Z,97392.22
2022-12-12T13:59:23.409Z,97385.19
2022-12-12T14:02:01.006Z,97339.00
2022-12-12T14:04:33.466Z,97366.00
2022-12-12T14:07:19.213Z,97381.75
2022-12-12T14:09:49.812Z,97356.25
2022-12-12T14:12:31.376Z,97380.72
2022-12-12T14:15:06.120Z,97388.47
2022-12-12T14:17:42.304Z,97374.50
2022-12-12T14:20:25.921Z,97373.91
2022-12-12T14:22:52.531Z,97389.06
2022-12-12T14:25:29.748Z,97386.56
2022-12-12T14:28:20.680Z,97363.56
2022-12-12T14:31:16.040Z,97385.34
2022-12-12T14:34:24.557Z,97393.63
2022-12-12T14:37:06.976Z,97397.41
2022-12-12T14:39:42.894Z,97426.22
2022-12-12T14:42:26.261Z,97399.88
2022-12-12T14:44:52.945Z,97389.91
2022-12-12T14:47:19.628Z,97364.59
2022-12-12T14:49:46.306Z,97357.34
2022-12-12T14:52:24.275Z,97362.13
2022-12-12T14:54:51.536Z,97344.28
2022-12-12T14:57:23.493Z,97383.88
2022-12-12T14:59:50.587Z,97374.38
2022-12-12T15:02:20.939Z,97383.69
2022-12-12T15:05:00.944Z,97381.00
2022-12-12T15:07:33.395Z,97373.13
2022-12-12T15:10:01.860Z,97382.25
2022-12-12T15:12:42.873Z,97359.41
2022-12-12T15:15:33.350Z,97388.47
2022-12-12T15:18:01.362Z,97364.19
2022-12-12T15:20:32.422Z,97358.16
2022-12-12T15:23:05.619Z,97351.31
2022-12-12T15:25:43.260Z,97351.97
2022-12-12T15:28:19.050Z,97337.63
2022-12-12T15:30:49.394Z,97372.50
2022-12-12T15:33:19.498Z,97330.59
2022-12-12T15:36:29.078Z,97394.09
2022-12-12T15:39:15.788Z,97394.06
2022-12-12T15:41:44.277Z,97346.31
2022-12-12T15:44:21.236Z,97370.97
2022-12-12T15:46:50.521Z,97389.03
2022-12-12T15:49:40.269Z,97419.31
2022-12-12T15:52:20.189Z,97423.88
2022-12-12T15:54:55.193Z,97368.44
2022-12-12T15:57:43.768Z,97416.56
2022-12-12T16:00:37.568Z,97391.44
2022-12-12T16:03:18.710Z,97415.94
2022-12-12T16:05:58.798Z,97404.31
2022-12-12T16:08:33.307Z,97394.13
2022-12-12T16:11:03.456Z,97386.88
2022-12-12T16:13:41.905Z,97344.09
2022-12-12T16:16:46.473Z,97399.69
2022-12-12T16:19:41.124Z,97404.00
2022-12-12T16:22:17.112Z,97373.22
2022-12-12T16:24:50.716Z,97414.16
2022-12-12T16:27:17.797Z,97410.66
2022-12-12T16:29:45.492Z,97385.44
2022-12-12T16:32:15.070Z,97370.72
2022-12-12T16:34:42.200Z,97411.47
2022-12-12T16:37:14.700Z,97366.75
2022-12-12T16:39:42.091Z,97379.38
2022-12-12T16:42:16.513Z,97379.13
2022-12-12T16:44:43.656Z,97396.59
2022-12-12T16:47:19.448Z,97407.41
2022-12-12T16:49:46.154Z,97371.69
2022-12-12T16:52:18.380Z,97402.69
2022-12-12T16:54:52.815Z,97396.88
2022-12-12T16:57:21.433Z,97376.53
2022-12-12T16:59:48.138Z,97375.09
2022-12-12T17:02:19.706Z,97326.94
2022-12-12T17:04:46.420Z,97334.03
2022-12-12T17:07:13.162Z,97349.25
2022-12-12T17:09:40.181Z,97339.84
2022-12-12T17:12:08.964Z,97374.78
2022-12-12T17:14:37.497Z,97319.53
2022-12-12T17:17:05.266Z,97320.16
2022-12-12T17:19:32.415Z,97326.56
2022-12-12T17:22:01.755Z,97347.50
2022-12-12T17:24:29.005Z,97335.28
2022-12-12T17:26:56.120Z,97338.16
2022-12-12T17:29:22.858Z,97368.28
2022-12-12T17:31:49.665Z,97333.06
2022-12-12T17:34:16.440Z,97339.75
2022-12-12T17:36:43.117Z,97329.38
2022-12-12T17:39:11.047Z,97316.50
2022-12-12T17:41:37.661Z,97362.13
2022-12-12T17:44:04.417Z,97353.38
2022-12-12T17:46:31.072Z,97361.28
2022-12-12T17:48:58.773Z,97378.13
2022-12-12T17:51:25.910Z,97362.53
2022-12-12T17:53:52.866Z,97323.31
2022-12-12T17:56:23.021Z,97335.09
2022-12-12T17:58:50.565Z,97380.72
2022-12-12T18:01:26.261Z,97374.91
2022-12-12T18:03:53.638Z,97375.75
2022-12-12T18:06:21.880Z,97395.41
2022-12-12T18:08:49.270Z,97388.63
2022-12-12T18:11:24.998Z,97393.31
2022-12-12T18:13:53.915Z,97398.31
2022-12-12T18:16:25.798Z,97373.91
2022-12-12T18:18:52.567Z,97377.25
2022-12-12T18:21:51.634Z,97360.00
2022-12-12T18:24:10.054Z,97401.94
2022-12-12T18:26:36.931Z,97384.28
2022-12-12T18:29:07.408Z,97374.16
2022-12-12T18:31:35.472Z,97377.25
2022-12-12T18:34:02.256Z,97380.16
2022-12-12T18:36:30.817Z,97342.38
2022-12-12T18:38:59.831Z,97375.44
2022-12-12T18:41:28.225Z,97389.78
2022-12-12T18:43:55.850Z,97415.72
2022-12-12T18:46:24.831Z,97407.19
2022-12-12T18:48:51.810Z,97410.94
2022-12-12T18:51:22.485Z,97399.75
2022-12-12T18:53:50.017Z,97375.03
2022-12-12T18:56:20.163Z,97411.38
2022-12-12T18:58:47.054Z,97361.56
2022-12-12T19:01:20.202Z,97354.09
2022-12-12T19:03:49.314Z,97384.38
2022-12-12T19:06:20.593Z,97367.97
2022-12-12T19:08:47.971Z,97361.22
2022-12-12T19:11:15.157Z,97421.19
2022-12-12T19:13:43.111Z,97382.03
2022-12-12T19:16:15.632Z,97349.84
2022-12-12T19:18:43.243Z,97382.03
2022-12-12T19:21:16.614Z,97390.63
2022-12-12T19:23:45.236Z,97362.69
2022-12-12T19:26:18.978Z,97360.84
2022-12-12T19:28:47.564Z,97399.09
2022-12-12T19:31:15.929Z,97364.16
2022-12-12T19:33:44.416Z,97339.78
2022-12-12T19:36:20.346Z,97375.28
2022-12-12T19:38:50.048Z,97358.84
2022-12-12T19:41:18.925Z,97365.34
2022-12-12T19:43:47.156Z,97410.53
2022-12-12T19:46:19.583Z,97408.56
2022-12-12T19:48:46.834Z,97404.22
2022-12-12T19:51:19.315Z,97403.88
2022-12-12T19:53:52.047Z,97389.25
2022-12-12T19:56:21.881Z,97391.75
2022-12-12T19:58:49.363Z,97441.84
2022-12-12T20:01:21.670Z,97421.53
2022-12-12T20:03:55.057Z,97382.88
2022-12-12T20:06:23.333Z,97408.50
2022-12-12T20:08:50.285Z,97430.16
2022-12-12T20:11:21.352Z,97402.28
2022-12-12T20:13:53.258Z,97397.34
2022-12-12T20:16:22.649Z,97435.84
2022-12-12T20:18:49.956Z,97436.97
2022-12-12T20:21:43.399Z,97448.94
2022-12-12T20:24:07.249Z,97443.69
2022-12-12T20:26:34.685Z,97422.06
2022-12-12T20:29:01.978Z,97437.81
2022-12-12T20:31:33.237Z,97425.03
2022-12-12T20:34:00.680Z,97463.66
2022-12-12T20:36:30.320Z,97452.13
2022-12-12T20:38:58.457Z,97469.09
2022-12-12T20:41:28.099Z,97451.78
2022-12-12T20:43:56.944Z,97420.88
2022-12-12T20:46:33.426Z,97415.78
2022-12-12T20:49:02.082Z,97462.72
2022-12-12T20:54:21.576Z,97389.69
2022-12-12T20:56:52.087Z,97459.34
2022-12-12T20:59:19.884Z,97405.84
2022-12-12T21:01:47.460Z,97416.91
2022-12-12T21:04:15.203Z,97414.13
2022-12-12T21:06:51.666Z,97434.84
2022-12-12T21:09:24.814Z,97431.16
2022-12-12T21:11:54.888Z,97444.59
2022-12-12T21:14:21.856Z,97445.34
2022-12-12T21:16:49.124Z,97438.25
2022-12-12T21:19:17.197Z,97430.34
2022-12-12T21:21:44.299Z,97469.09
2022-12-12T21:24:17.128Z,97492.09
2022-12-12T21:26:44.194Z,97485.84
2022-12-12T21:29:11.363Z,97496.38
2022-12-12T21:31:46.580Z,97497.34
2022-12-12T21:34:17.678Z,97504.25
2022-12-12T21:36:44.716Z,97461.03
2022-12-12T21:39:12.528Z,97490.03
2022-12-12T21:41:44.025Z,97468.84
2022-12-12T21:44:11.148Z,97523.13
2022-12-12T21:46:41.981Z,97505.63
2022-12-12T21:49:30.321Z,97479.59
2022-12-12T21:52:04.354Z,97494.28
2022-12-12T21:54:31.892Z,97483.91
2022-12-12T21:57:00.322Z,97501.94
2022-12-12T21:59:30.731Z,97477.06
2022-12-12T22:02:00.089Z,97498.75
2022-12-12T22:04:27.478Z,97509.75
2022-12-12T22:06:54.322Z,97467.00
2022-12-12T22:09:22.757Z,97500.88
2022-12-12T22:11:52.086Z,97452.75
2022-12-12T22:14:20.808Z,97474.28
2022-12-12T22:16:47.905Z,97486.63
2022-12-12T22:19:19.437Z,97521.00
2022-12-12T22:21:50.297Z,97474.84
2022-12-12T22:24:17.909Z,97468.47
2022-12-12T22:26:47.958Z,97540.81
2022-12-12T22:29:20.391Z,97530.75
2022-12-12T22:31:51.370Z,97529.28
2022-12-12T22:34:23.814Z,97537.97
2022-12-12T22:36:54.117Z,97496.94
2022-12-12T22:39:24.164Z,97534.81
2022-12-12T22:41:51.447Z,97529.66
2022-12-12T22:44:20.582Z,97518.09
2022-12-12T22:46:49.642Z,97499.16
2022-12-12T22:49:20.619Z,97504.19
2022-12-12T22:51:49.630Z,97538.97
2022-12-12T22:54:16.548Z,97491.03
2022-12-12T22:56:44.639Z,97484.50
2022-12-12T22:59:13.446Z,97499.41
2022-12-12T23:01:42.111Z,97517.47
2022-12-12T23:04:11.765Z,97522.81
2022-12-12T23:06:38.627Z,97491.56
2022-12-12T23:09:17.450Z,97540.03
2022-12-12T23:11:46.286Z,97530.31
2022-12-12T23:14:16.546Z,97480.06
2022-12-12T23:16:44.212Z,97536.47
2022-12-12T23:19:14.126Z,97490.75
2022-12-12T23:21:40.974Z,97496.38
2022-12-12T23:24:08.083Z,97523.97
2022-12-12T23:26:36.709Z,97550.03
2022-12-12T23:29:07.246Z,97554.22
2022-12-12T23:31:36.116Z,97513.56
2022-12-12T23:34:06.614Z,97557.00
2022-12-12T23:36:33.548Z,97528.59
2022-12-12T23:39:03.630Z,97556.53
2022-12-12T23:41:30.489Z,97531.94
2022-12-12T23:43:57.673Z,97541.44
2022-12-12T23:46:34.062Z,97569.03
2022-12-12T23:49:12.739Z,97562.50
2022-12-12T23:51:48.193Z,97562.88
2022-12-12T23:54:32.087Z,97565.41
2022-12-12T23:56:59.478Z,97534.63
2022-12-12T23:59:27.474Z,97578.09
